Christine Anderson — WCN2606 — position and weather

sailwx.info

Track history (hours):
 
Tides and Currents Weather Stations Pressure Air Temp Water Temp Dewpoint Dewpoint Depression Visibility Wind Speed Wind Dir Waves Ship Positions

Christine Anderson

Owner: PIERCE, COUNTY OF, TACOMA, WA. More information available from US FCC via Universal Licensing System and Coast Guard Vessel Documentation Center.

Last reported at 2017-Apr-27 04:31 UTC. Time now 2017-Apr-27 07:22 UTC.
Position N 47°10' W 122°36'.

MMSI: 366659730.

Date/timePositionNaut miles runAvg speedWind from/ knotsBaromVisibWave heightAir tempDewpointWater temp
2017-Apr-27 04:31N 47°10' W 122°36'0 3.2
2017-Apr-27 04:29N 47°11' W 122°36'3 6.1
2017-Apr-27 04:00N 47°11' W 122°40'3 4.5
2017-Apr-27 03:22N 47°10' W 122°36'0 0.0
2017-Apr-27 02:57N 47°10' W 122°36'1 2.9
2017-Apr-27 02:30N 47°10' W 122°38'2 4.2
2017-Apr-27 02:00N 47°11' W 122°40'3 5.2
2017-Apr-27 01:27N 47°10' W 122°36'3 5.0
2017-Apr-27 00:51N 47°11' W 122°41'3 7.4
2017-Apr-27 00:27N 47°10' W 122°36'2 4.6
2017-Apr-27 00:00N 47°11' W 122°39'2 3.4
2017-Apr-26 23:29N 47°11' W 122°37'2 4.2
2017-Apr-26 22:58N 47°11' W 122°40'2 2.8
2017-Apr-26 22:07N 47°11' W 122°36'111.1
2017-Apr-26 22:00N 47°11' W 122°38'0 0.8
2017-Apr-26 21:30N 47°11' W 122°39'2 1.3
2017-Apr-26 20:16N 47°10' W 122°36'1 3.8
2017-Apr-26 19:57N 47°10' W 122°38'2 4.7
2017-Apr-26 19:29N 47°11' W 122°41'3 6.4
2017-Apr-26 19:00N 47°10' W 122°36'0 0.0
2017-Apr-26 18:13N 47°10' W 122°36'0 0.7
2017-Apr-26 17:46N 47°11' W 122°36'3 8.2
2017-Apr-26 17:25N 47°11' W 122°41'3 4.5
2017-Apr-26 16:45N 47°11' W 122°36'3 6.2
2017-Apr-26 16:18N 47°11' W 122°40'2 4.3
2017-Apr-26 15:44N 47°11' W 122°37'2 6.2
2017-Apr-26 15:20N 47°11' W 122°41'3 5.4
2017-Apr-26 14:47N 47°10' W 122°36'3 4.7
2017-Apr-26 14:09N 47°11' W 122°41'2 2.8
2017-Apr-26 13:26N 47°11' W 122°38'2 3.8
2017-Apr-26 13:00N 47°11' W 122°40'2 5.0
2017-Apr-26 12:30N 47°11' W 122°36'2 4.8
2017-Apr-26 12:00N 47°11' W 122°40'3 3.7
2017-Apr-26 11:20N 47°10' W 122°36'0 0.0
2017-Apr-26 04:28N 47°10' W 122°36'3 6.0
2017-Apr-26 03:59N 47°11' W 122°40'3 2.1
2017-Apr-26 02:41N 47°11' W 122°37'1 6.4
2017-Apr-26 02:30N 47°10' W 122°38'2 3.9
2017-Apr-26 02:00N 47°11' W 122°40'3 3.9
2017-Apr-26 01:19N 47°11' W 122°36'3 6.2
2017-Apr-26 00:51N 47°11' W 122°41'3 6.6
2017-Apr-26 00:24N 47°10' W 122°36'2 5.8
2017-Apr-25 23:58N 47°11' W 122°40'2 4.1
2017-Apr-25 23:30N 47°11' W 122°37'1 1.2
2017-Apr-25 23:00N 47°11' W 122°38'1 1.1
2017-Apr-25 22:29N 47°11' W 122°38'0 0.9
2017-Apr-25 22:00N 47°11' W 122°38'1 1.3
2017-Apr-25 21:30N 47°11' W 122°39'2 1.0
2017-Apr-25 20:04N 47°11' W 122°37'1 9.2
2017-Apr-25 19:56N 47°10' W 122°38'2 3.2
2017-Apr-25 19:18N 47°11' W 122°40'3 2.6
2017-Apr-25 18:15N 47°10' W 122°36'0 0.5
2017-Apr-25 17:46N 47°11' W 122°36'310.7
2017-Apr-25 17:29N 47°11' W 122°41'2 2.8
2017-Apr-25 16:44N 47°11' W 122°38'2 8.0
2017-Apr-25 16:28N 47°11' W 122°41'3 5.9
2017-Apr-25 15:57N 47°10' W 122°36'3 4.3
2017-Apr-25 15:17N 47°11' W 122°40'3 9.7
2017-Apr-25 14:59N 47°10' W 122°36'2 2.3
2017-Apr-25 14:00N 47°11' W 122°39'2 3.7
2017-Apr-25 13:29N 47°11' W 122°37'2 4.9
2017-Apr-25 13:00N 47°11' W 122°40'2 4.9
2017-Apr-25 12:30N 47°11' W 122°36'3 5.2
2017-Apr-25 12:00N 47°11' W 122°40'3 0.4
2017-Apr-25 04:29N 47°10' W 122°36'3 6.1
2017-Apr-25 04:00N 47°11' W 122°40'3 2.3
2017-Apr-25 02:46N 47°11' W 122°36'1 5.0
2017-Apr-25 02:30N 47°10' W 122°38'2 4.2
2017-Apr-25 02:00N 47°11' W 122°41'3 3.9
2017-Apr-25 01:15N 47°11' W 122°36'311.8
2017-Apr-25 01:00N 47°11' W 122°41'3 5.6
2017-Apr-25 00:27N 47°10' W 122°36'2 5.1
2017-Apr-24 23:59N 47°11' W 122°40'2 4.5
2017-Apr-24 23:29N 47°11' W 122°36'1 2.0
2017-Apr-24 23:00N 47°11' W 122°38'0 0.6
2017-Apr-24 22:30N 47°11' W 122°38'0 0.4
2017-Apr-24 22:00N 47°11' W 122°38'1 1.2
2017-Apr-24 21:30N 47°11' W 122°39'2 3.3
2017-Apr-24 20:59N 47°10' W 122°36'  
2017-Apr-20 20:35N 47°11' W 122°36'0 4.3
2017-Apr-20 20:30N 47°11' W 122°36'0 0.3
2017-Apr-20 18:59N 47°10' W 122°36'0 0.0
2017-Apr-20 18:21N 47°10' W 122°36'0 0.0
2017-Apr-20 18:00N 47°10' W 122°36'3 5.8
2017-Apr-20 17:29N 47°11' W 122°41'3 4.1
2017-Apr-20 16:46N 47°11' W 122°36'3 6.5
2017-Apr-20 16:20N 47°11' W 122°41'3 5.8
2017-Apr-20 15:49N 47°10' W 122°36'3 6.9
2017-Apr-20 15:22N 47°11' W 122°41'3 5.2
2017-Apr-20 14:47N 47°10' W 122°36'310.6
2017-Apr-20 14:30N 47°11' W 122°41'2 2.4
2017-Apr-20 13:30N 47°11' W 122°37'2 4.2
2017-Apr-20 13:00N 47°11' W 122°40'2 3.2
2017-Apr-20 12:26N 47°11' W 122°37'2 4.1
2017-Apr-20 12:00N 47°11' W 122°40'3 0.3
2017-Apr-20 04:28N 47°10' W 122°36'3 6.1
2017-Apr-20 03:59N 47°11' W 122°41'3 6.2
2017-Apr-20 03:29N 47°10' W 122°36'0 0.2
2017-Apr-20 02:28N 47°11' W 122°36'3 6.2
2017-Apr-20 02:00N 47°11' W 122°41'3 5.3
2017-Apr-20 01:25N 47°10' W 122°36'3 7.0
2017-Apr-20 01:00N 47°11' W 122°40'3 5.6
2017-Apr-20 00:29N 47°10' W 122°36'1 2.6
2017-Apr-20 00:00N 47°11' W 122°38'0 0.6
2017-Apr-19 23:30N 47°11' W 122°38'0 0.8
2017-Apr-19 23:00N 47°11' W 122°38'1 1.5
2017-Apr-19 22:30N 47°11' W 122°38'1 1.3
2017-Apr-19 22:00N 47°11' W 122°38'1 1.5
2017-Apr-19 21:30N 47°11' W 122°39'2 1.3
2017-Apr-19 20:07N 47°10' W 122°36'1 6.8
2017-Apr-19 19:57N 47°10' W 122°38'2 5.1
2017-Apr-19 19:30N 47°11' W 122°41'3 5.7
2017-Apr-19 18:58N 47°10' W 122°36'0 0.0
2017-Apr-19 18:30N 47°10' W 122°36'3 3.6
2017-Apr-19 17:40N 47°11' W 122°41'0 0.0
2017-Apr-19 17:27N 47°11' W 122°41'3 6.3
2017-Apr-19 16:58N 47°10' W 122°36'3 6.3
2017-Apr-19 16:30N 47°11' W 122°41'3 5.4
2017-Apr-19 15:56N 47°10' W 122°36'3 7.0
2017-Apr-19 15:30N 47°11' W 122°41'3 5.7
2017-Apr-19 14:58N 47°10' W 122°36'3 6.5
2017-Apr-19 14:30N 47°11' W 122°41'3 3.0
2017-Apr-19 13:30N 47°11' W 122°36'3 5.4
2017-Apr-19 13:00N 47°11' W 122°40'2 3.7
2017-Apr-19 12:27N 47°11' W 122°37'2 4.5
2017-Apr-19 12:00N 47°11' W 122°40'3 0.4
2017-Apr-19 04:30N 47°10' W 122°36'3 5.7
2017-Apr-19 04:00N 47°11' W 122°40'3 2.7
2017-Apr-19 02:57N 47°10' W 122°36'1 2.8
2017-Apr-19 02:30N 47°10' W 122°38'2 3.6
2017-Apr-19 02:00N 47°11' W 122°40'2 3.2
2017-Apr-19 01:16N 47°11' W 122°36'3 6.4
2017-Apr-19 00:50N 47°11' W 122°41'3 4.4
2017-Apr-19 00:11N 47°11' W 122°36'210.9
2017-Apr-19 00:00N 47°11' W 122°39'2 3.2
2017-Apr-18 23:30N 47°11' W 122°37'1 1.2
2017-Apr-18 23:00N 47°11' W 122°38'0 0.3
2017-Apr-18 22:30N 47°11' W 122°38'1 1.6
2017-Apr-18 22:00N 47°11' W 122°39'1 2.0
2017-Apr-18 21:30N 47°11' W 122°38'1 0.6
2017-Apr-18 20:05N 47°11' W 122°36'110.2
2017-Apr-18 19:57N 47°10' W 122°38'2 5.0
2017-Apr-18 19:30N 47°11' W 122°41'3 5.9
2017-Apr-18 18:59N 47°10' W 122°36'0 0.0
2017-Apr-18 18:08N 47°10' W 122°36'1 8.6
2017-Apr-18 18:00N 47°11' W 122°38'1 1.1
2017-Apr-18 17:30N 47°11' W 122°39'2 3.0
2017-Apr-18 16:57N 47°10' W 122°36'3 5.3
2017-Apr-18 16:22N 47°11' W 122°41'3 4.6
2017-Apr-18 15:46N 47°11' W 122°36'3 6.1
2017-Apr-18 15:18N 47°11' W 122°40'3 8.1
2017-Apr-18 14:56N 47°10' W 122°36'3 7.0
2017-Apr-18 14:30N 47°11' W 122°41'3 2.8
2017-Apr-18 13:30N 47°11' W 122°36'3 5.1
2017-Apr-18 13:00N 47°11' W 122°40'3 5.2
2017-Apr-18 12:30N 47°11' W 122°36'2 4.9
2017-Apr-18 12:00N 47°11' W 122°40'3 0.3
2017-Apr-18 04:28N 47°10' W 122°36'3 6.0
2017-Apr-18 03:58N 47°11' W 122°41'3 2.4
2017-Apr-18 02:45N 47°10' W 122°36'1 5.2
2017-Apr-18 02:31N 47°10' W 122°38'2 4.1
2017-Apr-18 02:00N 47°11' W 122°40'3 4.1
2017-Apr-18 01:21N 47°11' W 122°37'3 6.0
2017-Apr-18 00:54N 47°11' W 122°41'3 6.4
2017-Apr-18 00:26N 47°10' W 122°36'1 3.0
2017-Apr-18 00:01N 47°11' W 122°38'0 0.9
2017-Apr-17 23:30N 47°11' W 122°39'1 1.2
2017-Apr-17 23:00N 47°11' W 122°38'0 0.6
2017-Apr-17 22:31N 47°11' W 122°38'0 0.4
2017-Apr-17 22:00N 47°11' W 122°38'1 1.2
2017-Apr-17 21:30N 47°10' W 122°38'1 1.0
2017-Apr-17 20:34N 47°10' W 122°36'0 0.0
2017-Apr-17 20:21N 47°10' W 122°36'1 1.7
2017-Apr-17 20:00N 47°10' W 122°37'2 3.8
2017-Apr-17 19:21N 47°11' W 122°41'3 2.8
2017-Apr-17 18:16N 47°10' W 122°36'0 0.0
2017-Apr-17 17:58N 47°10' W 122°36'3 6.6
2017-Apr-17 17:30N 47°11' W 122°41'3 5.7
2017-Apr-17 16:58N 47°10' W 122°36'3 6.5
2017-Apr-17 16:31N 47°11' W 122°41'3 4.7
2017-Apr-17 15:52N 47°10' W 122°36'3 5.5
2017-Apr-17 15:19N 47°11' W 122°41'3 5.6
2017-Apr-17 14:47N 47°11' W 122°36'311.0
2017-Apr-17 14:30N 47°11' W 122°41'2 2.4
2017-Apr-17 13:29N 47°11' W 122°37'2 4.2
2017-Apr-17 13:00N 47°11' W 122°40'2 4.9
2017-Apr-17 12:30N 47°11' W 122°36'3 5.4
2017-Apr-17 12:01N 47°11' W 122°40'3 0.4
2017-Apr-17 04:33N 47°10' W 122°36'  
Track history (hours):
 
Tides and Currents Weather Stations Pressure Air Temp Water Temp Dewpoint Dewpoint Depression Visibility Wind Speed Wind Dir Waves Ship Positions

Christine Anderson

Owner: PIERCE, COUNTY OF, TACOMA, WA. More information available from US FCC via Universal Licensing System and Coast Guard Vessel Documentation Center.

Last reported at 2017-Apr-27 04:31 UTC. Time now 2017-Apr-27 07:22 UTC.
Position N 47°10' W 122°36'.

MMSI: 366659730.

Date/timePositionNaut miles runAvg speedWind from/ knotsBaromVisibWave heightAir tempDewpointWater temp
2017-Apr-27 04:31N 47°10' W 122°36'0 3.2
2017-Apr-27 04:29N 47°11' W 122°36'3 6.1
2017-Apr-27 04:00N 47°11' W 122°40'3 4.5
2017-Apr-27 03:22N 47°10' W 122°36'0 0.0
2017-Apr-27 02:57N 47°10' W 122°36'1 2.9
2017-Apr-27 02:30N 47°10' W 122°38'2 4.2
2017-Apr-27 02:00N 47°11' W 122°40'3 5.2
2017-Apr-27 01:27N 47°10' W 122°36'3 5.0
2017-Apr-27 00:51N 47°11' W 122°41'3 7.4
2017-Apr-27 00:27N 47°10' W 122°36'2 4.6
2017-Apr-27 00:00N 47°11' W 122°39'2 3.4
2017-Apr-26 23:29N 47°11' W 122°37'2 4.2
2017-Apr-26 22:58N 47°11' W 122°40'2 2.8
2017-Apr-26 22:07N 47°11' W 122°36'111.1
2017-Apr-26 22:00N 47°11' W 122°38'0 0.8
2017-Apr-26 21:30N 47°11' W 122°39'2 1.3
2017-Apr-26 20:16N 47°10' W 122°36'1 3.8
2017-Apr-26 19:57N 47°10' W 122°38'2 4.7
2017-Apr-26 19:29N 47°11' W 122°41'3 6.4
2017-Apr-26 19:00N 47°10' W 122°36'0 0.0
2017-Apr-26 18:13N 47°10' W 122°36'0 0.7
2017-Apr-26 17:46N 47°11' W 122°36'3 8.2
2017-Apr-26 17:25N 47°11' W 122°41'3 4.5
2017-Apr-26 16:45N 47°11' W 122°36'3 6.2
2017-Apr-26 16:18N 47°11' W 122°40'2 4.3
2017-Apr-26 15:44N 47°11' W 122°37'2 6.2
2017-Apr-26 15:20N 47°11' W 122°41'3 5.4
2017-Apr-26 14:47N 47°10' W 122°36'3 4.7
2017-Apr-26 14:09N 47°11' W 122°41'2 2.8
2017-Apr-26 13:26N 47°11' W 122°38'2 3.8
2017-Apr-26 13:00N 47°11' W 122°40'2 5.0
2017-Apr-26 12:30N 47°11' W 122°36'2 4.8
2017-Apr-26 12:00N 47°11' W 122°40'3 3.7
2017-Apr-26 11:20N 47°10' W 122°36'0 0.0
2017-Apr-26 04:28N 47°10' W 122°36'3 6.0
2017-Apr-26 03:59N 47°11' W 122°40'3 2.1
2017-Apr-26 02:41N 47°11' W 122°37'1 6.4
2017-Apr-26 02:30N 47°10' W 122°38'2 3.9
2017-Apr-26 02:00N 47°11' W 122°40'3 3.9
2017-Apr-26 01:19N 47°11' W 122°36'3 6.2
2017-Apr-26 00:51N 47°11' W 122°41'3 6.6
2017-Apr-26 00:24N 47°10' W 122°36'2 5.8
2017-Apr-25 23:58N 47°11' W 122°40'2 4.1
2017-Apr-25 23:30N 47°11' W 122°37'1 1.2
2017-Apr-25 23:00N 47°11' W 122°38'1 1.1
2017-Apr-25 22:29N 47°11' W 122°38'0 0.9
2017-Apr-25 22:00N 47°11' W 122°38'1 1.3
2017-Apr-25 21:30N 47°11' W 122°39'2 1.0
2017-Apr-25 20:04N 47°11' W 122°37'1 9.2
2017-Apr-25 19:56N 47°10' W 122°38'2 3.2
2017-Apr-25 19:18N 47°11' W 122°40'3 2.6
2017-Apr-25 18:15N 47°10' W 122°36'0 0.5
2017-Apr-25 17:46N 47°11' W 122°36'310.7
2017-Apr-25 17:29N 47°11' W 122°41'2 2.8
2017-Apr-25 16:44N 47°11' W 122°38'2 8.0
2017-Apr-25 16:28N 47°11' W 122°41'3 5.9
2017-Apr-25 15:57N 47°10' W 122°36'3 4.3
2017-Apr-25 15:17N 47°11' W 122°40'3 9.7
2017-Apr-25 14:59N 47°10' W 122°36'2 2.3
2017-Apr-25 14:00N 47°11' W 122°39'2 3.7
2017-Apr-25 13:29N 47°11' W 122°37'2 4.9
2017-Apr-25 13:00N 47°11' W 122°40'2 4.9
2017-Apr-25 12:30N 47°11' W 122°36'3 5.2
2017-Apr-25 12:00N 47°11' W 122°40'3 0.4
2017-Apr-25 04:29N 47°10' W 122°36'3 6.1
2017-Apr-25 04:00N 47°11' W 122°40'3 2.3
2017-Apr-25 02:46N 47°11' W 122°36'1 5.0
2017-Apr-25 02:30N 47°10' W 122°38'2 4.2
2017-Apr-25 02:00N 47°11' W 122°41'3 3.9
2017-Apr-25 01:15N 47°11' W 122°36'311.8
2017-Apr-25 01:00N 47°11' W 122°41'3 5.6
2017-Apr-25 00:27N 47°10' W 122°36'2 5.1
2017-Apr-24 23:59N 47°11' W 122°40'2 4.5
2017-Apr-24 23:29N 47°11' W 122°36'1 2.0
2017-Apr-24 23:00N 47°11' W 122°38'0 0.6
2017-Apr-24 22:30N 47°11' W 122°38'0 0.4
2017-Apr-24 22:00N 47°11' W 122°38'1 1.2
2017-Apr-24 21:30N 47°11' W 122°39'2 3.3
2017-Apr-24 20:59N 47°10' W 122°36'  
2017-Apr-20 20:35N 47°11' W 122°36'0 4.3
2017-Apr-20 20:30N 47°11' W 122°36'0 0.3
2017-Apr-20 18:59N 47°10' W 122°36'0 0.0
2017-Apr-20 18:21N 47°10' W 122°36'0 0.0
2017-Apr-20 18:00N 47°10' W 122°36'3 5.8
2017-Apr-20 17:29N 47°11' W 122°41'3 4.1
2017-Apr-20 16:46N 47°11' W 122°36'3 6.5
2017-Apr-20 16:20N 47°11' W 122°41'3 5.8
2017-Apr-20 15:49N 47°10' W 122°36'3 6.9
2017-Apr-20 15:22N 47°11' W 122°41'3 5.2
2017-Apr-20 14:47N 47°10' W 122°36'310.6
2017-Apr-20 14:30N 47°11' W 122°41'2 2.4
2017-Apr-20 13:30N 47°11' W 122°37'2 4.2
2017-Apr-20 13:00N 47°11' W 122°40'2 3.2
2017-Apr-20 12:26N 47°11' W 122°37'2 4.1
2017-Apr-20 12:00N 47°11' W 122°40'3 0.3
2017-Apr-20 04:28N 47°10' W 122°36'3 6.1
2017-Apr-20 03:59N 47°11' W 122°41'3 6.2
2017-Apr-20 03:29N 47°10' W 122°36'0 0.2
2017-Apr-20 02:28N 47°11' W 122°36'3 6.2
2017-Apr-20 02:00N 47°11' W 122°41'3 5.3
2017-Apr-20 01:25N 47°10' W 122°36'3 7.0
2017-Apr-20 01:00N 47°11' W 122°40'3 5.6
2017-Apr-20 00:29N 47°10' W 122°36'1 2.6
2017-Apr-20 00:00N 47°11' W 122°38'0 0.6
2017-Apr-19 23:30N 47°11' W 122°38'0 0.8
2017-Apr-19 23:00N 47°11' W 122°38'1 1.5
2017-Apr-19 22:30N 47°11' W 122°38'1 1.3
2017-Apr-19 22:00N 47°11' W 122°38'1 1.5
2017-Apr-19 21:30N 47°11' W 122°39'2 1.3
2017-Apr-19 20:07N 47°10' W 122°36'1 6.8
2017-Apr-19 19:57N 47°10' W 122°38'2 5.1
2017-Apr-19 19:30N 47°11' W 122°41'3 5.7
2017-Apr-19 18:58N 47°10' W 122°36'0 0.0
2017-Apr-19 18:30N 47°10' W 122°36'3 3.6
2017-Apr-19 17:40N 47°11' W 122°41'0 0.0
2017-Apr-19 17:27N 47°11' W 122°41'3 6.3
2017-Apr-19 16:58N 47°10' W 122°36'3 6.3
2017-Apr-19 16:30N 47°11' W 122°41'3 5.4
2017-Apr-19 15:56N 47°10' W 122°36'3 7.0
2017-Apr-19 15:30N 47°11' W 122°41'3 5.7
2017-Apr-19 14:58N 47°10' W 122°36'3 6.5
2017-Apr-19 14:30N 47°11' W 122°41'3 3.0
2017-Apr-19 13:30N 47°11' W 122°36'3 5.4
2017-Apr-19 13:00N 47°11' W 122°40'2 3.7
2017-Apr-19 12:27N 47°11' W 122°37'2 4.5
2017-Apr-19 12:00N 47°11' W 122°40'3 0.4
2017-Apr-19 04:30N 47°10' W 122°36'3 5.7
2017-Apr-19 04:00N 47°11' W 122°40'3 2.7
2017-Apr-19 02:57N 47°10' W 122°36'1 2.8
2017-Apr-19 02:30N 47°10' W 122°38'2 3.6
2017-Apr-19 02:00N 47°11' W 122°40'2 3.2
2017-Apr-19 01:16N 47°11' W 122°36'3 6.4
2017-Apr-19 00:50N 47°11' W 122°41'3 4.4
2017-Apr-19 00:11N 47°11' W 122°36'210.9
2017-Apr-19 00:00N 47°11' W 122°39'2 3.2
2017-Apr-18 23:30N 47°11' W 122°37'1 1.2
2017-Apr-18 23:00N 47°11' W 122°38'0 0.3
2017-Apr-18 22:30N 47°11' W 122°38'1 1.6
2017-Apr-18 22:00N 47°11' W 122°39'1 2.0
2017-Apr-18 21:30N 47°11' W 122°38'1 0.6
2017-Apr-18 20:05N 47°11' W 122°36'110.2
2017-Apr-18 19:57N 47°10' W 122°38'2 5.0
2017-Apr-18 19:30N 47°11' W 122°41'3 5.9
2017-Apr-18 18:59N 47°10' W 122°36'0 0.0
2017-Apr-18 18:08N 47°10' W 122°36'1 8.6
2017-Apr-18 18:00N 47°11' W 122°38'1 1.1
2017-Apr-18 17:30N 47°11' W 122°39'2 3.0
2017-Apr-18 16:57N 47°10' W 122°36'3 5.3
2017-Apr-18 16:22N 47°11' W 122°41'3 4.6
2017-Apr-18 15:46N 47°11' W 122°36'3 6.1
2017-Apr-18 15:18N 47°11' W 122°40'3 8.1
2017-Apr-18 14:56N 47°10' W 122°36'3 7.0
2017-Apr-18 14:30N 47°11' W 122°41'3 2.8
2017-Apr-18 13:30N 47°11' W 122°36'3 5.1
2017-Apr-18 13:00N 47°11' W 122°40'3 5.2
2017-Apr-18 12:30N 47°11' W 122°36'2 4.9
2017-Apr-18 12:00N 47°11' W 122°40'3 0.3
2017-Apr-18 04:28N 47°10' W 122°36'3 6.0
2017-Apr-18 03:58N 47°11' W 122°41'3 2.4
2017-Apr-18 02:45N 47°10' W 122°36'1 5.2
2017-Apr-18 02:31N 47°10' W 122°38'2 4.1
2017-Apr-18 02:00N 47°11' W 122°40'3 4.1
2017-Apr-18 01:21N 47°11' W 122°37'3 6.0
2017-Apr-18 00:54N 47°11' W 122°41'3 6.4
2017-Apr-18 00:26N 47°10' W 122°36'1 3.0
2017-Apr-18 00:01N 47°11' W 122°38'0 0.9
2017-Apr-17 23:30N 47°11' W 122°39'1 1.2
2017-Apr-17 23:00N 47°11' W 122°38'0 0.6
2017-Apr-17 22:31N 47°11' W 122°38'0 0.4
2017-Apr-17 22:00N 47°11' W 122°38'1 1.2
2017-Apr-17 21:30N 47°10' W 122°38'1 1.0
2017-Apr-17 20:34N 47°10' W 122°36'0 0.0
2017-Apr-17 20:21N 47°10' W 122°36'1 1.7
2017-Apr-17 20:00N 47°10' W 122°37'2 3.8
2017-Apr-17 19:21N 47°11' W 122°41'3 2.8
2017-Apr-17 18:16N 47°10' W 122°36'0 0.0
2017-Apr-17 17:58N 47°10' W 122°36'3 6.6
2017-Apr-17 17:30N 47°11' W 122°41'3 5.7
2017-Apr-17 16:58N 47°10' W 122°36'3 6.5
2017-Apr-17 16:31N 47°11' W 122°41'3 4.7
2017-Apr-17 15:52N 47°10' W 122°36'3 5.5
2017-Apr-17 15:19N 47°11' W 122°41'3 5.6
2017-Apr-17 14:47N 47°11' W 122°36'311.0
2017-Apr-17 14:30N 47°11' W 122°41'2 2.4
2017-Apr-17 13:29N 47°11' W 122°37'2 4.2
2017-Apr-17 13:00N 47°11' W 122°40'2 4.9
2017-Apr-17 12:30N 47°11' W 122°36'3 5.4
2017-Apr-17 12:01N 47°11' W 122°40'3 0.4
2017-Apr-17 04:33N 47°10' W 122°36'  

Dump ship's entire track history